sensor_id;sensor_type;location;lat;lon;timestamp;P1;durP1;ratioP1;P2;durP2;ratioP2
38182;SDS011;23991;52.430;10.586;2022-08-18T00:01:41;9.35;;;6.55;;
38182;SDS011;23991;52.430;10.586;2022-08-18T00:04:09;7.70;;;6.88;;
38182;SDS011;23991;52.430;10.586;2022-08-18T00:06:36;8.27;;;6.85;;
38182;SDS011;23991;52.430;10.586;2022-08-18T00:09:03;10.52;;;6.93;;
38182;SDS011;23991;52.430;10.586;2022-08-18T00:11:31;12.40;;;7.13;;
38182;SDS011;23991;52.430;10.586;2022-08-18T00:13:58;8.73;;;6.97;;
38182;SDS011;23991;52.430;10.586;2022-08-18T00:16:24;9.25;;;7.07;;
38182;SDS011;23991;52.430;10.586;2022-08-18T00:18:49;10.40;;;7.60;;
38182;SDS011;23991;52.430;10.586;2022-08-18T00:21:16;12.48;;;7.55;;
38182;SDS011;23991;52.430;10.586;2022-08-18T00:23:42;8.60;;;7.80;;
38182;SDS011;23991;52.430;10.586;2022-08-18T00:26:08;7.90;;;7.10;;
38182;SDS011;23991;52.430;10.586;2022-08-18T00:28:33;12.98;;;8.07;;
38182;SDS011;23991;52.430;10.586;2022-08-18T00:30:59;9.10;;;7.75;;
38182;SDS011;23991;52.430;10.586;2022-08-18T00:33:25;11.75;;;7.75;;
38182;SDS011;23991;52.430;10.586;2022-08-18T00:35:51;13.30;;;9.10;;
38182;SDS011;23991;52.430;10.586;2022-08-18T00:38:16;10.80;;;8.43;;
38182;SDS011;23991;52.430;10.586;2022-08-18T00:40:44;12.65;;;9.02;;
38182;SDS011;23991;52.430;10.586;2022-08-18T00:43:17;10.07;;;8.50;;
38182;SDS011;23991;52.430;10.586;2022-08-18T00:45:47;10.00;;;8.50;;
38182;SDS011;23991;52.430;10.586;2022-08-18T00:48:13;9.52;;;8.48;;
38182;SDS011;23991;52.430;10.586;2022-08-18T00:53:14;10.95;;;8.57;;
38182;SDS011;23991;52.430;10.586;2022-08-18T00:55:59;11.23;;;9.20;;
38182;SDS011;23991;52.430;10.586;2022-08-18T00:58:31;10.65;;;8.57;;
38182;SDS011;23991;52.430;10.586;2022-08-18T01:01:02;11.80;;;9.82;;
38182;SDS011;23991;52.430;10.586;2022-08-18T01:03:29;12.13;;;9.68;;
38182;SDS011;23991;52.430;10.586;2022-08-18T01:06:01;11.20;;;8.73;;
38182;SDS011;23991;52.430;10.586;2022-08-18T01:08:29;10.65;;;8.82;;
38182;SDS011;23991;52.430;10.586;2022-08-18T01:10:56;9.88;;;8.88;;
38182;SDS011;23991;52.430;10.586;2022-08-18T01:15:53;9.73;;;8.65;;
38182;SDS011;23991;52.430;10.586;2022-08-18T01:18:18;13.05;;;9.50;;
38182;SDS011;23991;52.430;10.586;2022-08-18T01:21:10;12.63;;;9.15;;
38182;SDS011;23991;52.430;10.586;2022-08-18T01:24:02;11.40;;;9.95;;
38182;SDS011;23991;52.430;10.586;2022-08-18T01:26:31;14.00;;;10.60;;
38182;SDS011;23991;52.430;10.586;2022-08-18T01:29:05;18.40;;;10.48;;
38182;SDS011;23991;52.430;10.586;2022-08-18T01:31:53;15.82;;;11.48;;
38182;SDS011;23991;52.430;10.586;2022-08-18T01:34:19;12.68;;;10.40;;
38182;SDS011;23991;52.430;10.586;2022-08-18T01:36:48;13.67;;;10.10;;
38182;SDS011;23991;52.430;10.586;2022-08-18T01:39:16;13.13;;;10.85;;
38182;SDS011;23991;52.430;10.586;2022-08-18T01:41:43;12.40;;;10.57;;
38182;SDS011;23991;52.430;10.586;2022-08-18T01:44:09;11.73;;;9.73;;
38182;SDS011;23991;52.430;10.586;2022-08-18T01:46:36;12.30;;;9.68;;
38182;SDS011;23991;52.430;10.586;2022-08-18T01:49:03;13.57;;;10.20;;
38182;SDS011;23991;52.430;10.586;2022-08-18T01:51:30;15.38;;;10.43;;
38182;SDS011;23991;52.430;10.586;2022-08-18T01:53:57;10.90;;;9.50;;
38182;SDS011;23991;52.430;10.586;2022-08-18T01:56:23;12.23;;;9.57;;
38182;SDS011;23991;52.430;10.586;2022-08-18T02:01:19;11.20;;;9.75;;
38182;SDS011;23991;52.430;10.586;2022-08-18T02:03:48;13.48;;;10.27;;
38182;SDS011;23991;52.430;10.586;2022-08-18T02:06:18;14.27;;;10.27;;
38182;SDS011;23991;52.430;10.586;2022-08-18T02:08:44;12.27;;;10.57;;
38182;SDS011;23991;52.430;10.586;2022-08-18T02:11:11;14.25;;;10.25;;
38182;SDS011;23991;52.430;10.586;2022-08-18T02:13:37;11.98;;;10.25;;
38182;SDS011;23991;52.430;10.586;2022-08-18T02:16:04;15.00;;;11.60;;
38182;SDS011;23991;52.430;10.586;2022-08-18T02:18:31;13.55;;;11.20;;
38182;SDS011;23991;52.430;10.586;2022-08-18T02:21:04;11.70;;;10.25;;
38182;SDS011;23991;52.430;10.586;2022-08-18T02:23:34;15.13;;;11.52;;
38182;SDS011;23991;52.430;10.586;2022-08-18T02:26:04;15.15;;;11.93;;
38182;SDS011;23991;52.430;10.586;2022-08-18T02:28:31;14.20;;;10.95;;
38182;SDS011;23991;52.430;10.586;2022-08-18T02:31:02;16.33;;;10.82;;
38182;SDS011;23991;52.430;10.586;2022-08-18T02:33:35;13.70;;;10.90;;
38182;SDS011;23991;52.430;10.586;2022-08-18T02:36:01;15.50;;;11.15;;
38182;SDS011;23991;52.430;10.586;2022-08-18T02:38:28;13.32;;;10.38;;
38182;SDS011;23991;52.430;10.586;2022-08-18T02:40:58;14.73;;;11.88;;
38182;SDS011;23991;52.430;10.586;2022-08-18T02:43:26;13.35;;;11.65;;
38182;SDS011;23991;52.430;10.586;2022-08-18T02:45:52;13.75;;;11.80;;
38182;SDS011;23991;52.430;10.586;2022-08-18T02:48:18;14.20;;;12.00;;
38182;SDS011;23991;52.430;10.586;2022-08-18T02:51:06;12.95;;;11.57;;
38182;SDS011;23991;52.430;10.586;2022-08-18T02:53:38;14.07;;;11.82;;
38182;SDS011;23991;52.430;10.586;2022-08-18T02:56:09;15.55;;;12.52;;
38182;SDS011;23991;52.430;10.586;2022-08-18T02:58:46;17.17;;;13.18;;
38182;SDS011;23991;52.430;10.586;2022-08-18T03:01:11;16.00;;;13.82;;
38182;SDS011;23991;52.430;10.586;2022-08-18T03:03:37;16.08;;;13.25;;
38182;SDS011;23991;52.430;10.586;2022-08-18T03:06:03;20.58;;;13.90;;
38182;SDS011;23991;52.430;10.586;2022-08-18T03:08:29;19.35;;;14.00;;
38182;SDS011;23991;52.430;10.586;2022-08-18T03:10:56;19.02;;;15.68;;
38182;SDS011;23991;52.430;10.586;2022-08-18T03:13:22;17.63;;;14.50;;
38182;SDS011;23991;52.430;10.586;2022-08-18T03:15:48;18.88;;;14.65;;
38182;SDS011;23991;52.430;10.586;2022-08-18T03:18:13;18.40;;;15.13;;
38182;SDS011;23991;52.430;10.586;2022-08-18T03:20:39;23.90;;;16.10;;
38182;SDS011;23991;52.430;10.586;2022-08-18T03:23:08;19.38;;;15.60;;
38182;SDS011;23991;52.430;10.586;2022-08-18T03:25:33;20.92;;;16.50;;
38182;SDS011;23991;52.430;10.586;2022-08-18T03:28:01;18.95;;;14.75;;
38182;SDS011;23991;52.430;10.586;2022-08-18T03:30:27;19.73;;;15.98;;
38182;SDS011;23991;52.430;10.586;2022-08-18T03:32:53;18.15;;;16.13;;
38182;SDS011;23991;52.430;10.586;2022-08-18T03:35:19;21.08;;;15.35;;
38182;SDS011;23991;52.430;10.586;2022-08-18T03:37:44;19.85;;;15.68;;
38182;SDS011;23991;52.430;10.586;2022-08-18T03:40:10;18.77;;;15.07;;
38182;SDS011;23991;52.430;10.586;2022-08-18T03:42:36;18.58;;;15.82;;
38182;SDS011;23991;52.430;10.586;2022-08-18T03:45:02;22.10;;;16.15;;
38182;SDS011;23991;52.430;10.586;2022-08-18T03:47:28;21.30;;;16.95;;
38182;SDS011;23991;52.430;10.586;2022-08-18T03:49:54;21.60;;;15.25;;
38182;SDS011;23991;52.430;10.586;2022-08-18T03:52:19;18.02;;;15.50;;
38182;SDS011;23991;52.430;10.586;2022-08-18T03:54:45;19.58;;;15.48;;
38182;SDS011;23991;52.430;10.586;2022-08-18T03:57:11;16.77;;;14.93;;
38182;SDS011;23991;52.430;10.586;2022-08-18T03:59:37;19.65;;;16.10;;
38182;SDS011;23991;52.430;10.586;2022-08-18T04:02:07;21.00;;;15.90;;
38182;SDS011;23991;52.430;10.586;2022-08-18T04:04:33;20.30;;;16.52;;
38182;SDS011;23991;52.430;10.586;2022-08-18T04:07:00;20.20;;;16.83;;
38182;SDS011;23991;52.430;10.586;2022-08-18T04:09:36;20.27;;;16.88;;
38182;SDS011;23991;52.430;10.586;2022-08-18T04:12:06;21.08;;;16.40;;
38182;SDS011;23991;52.430;10.586;2022-08-18T04:14:38;19.75;;;16.30;;
38182;SDS011;23991;52.430;10.586;2022-08-18T04:17:05;19.75;;;15.80;;
38182;SDS011;23991;52.430;10.586;2022-08-18T04:19:31;21.73;;;16.20;;
38182;SDS011;23991;52.430;10.586;2022-08-18T04:21:58;18.17;;;16.08;;
38182;SDS011;23991;52.430;10.586;2022-08-18T04:24:26;28.70;;;18.00;;
38182;SDS011;23991;52.430;10.586;2022-08-18T04:26:54;23.75;;;17.13;;
38182;SDS011;23991;52.430;10.586;2022-08-18T04:29:20;21.38;;;17.60;;
38182;SDS011;23991;52.430;10.586;2022-08-18T04:31:47;23.42;;;16.63;;
38182;SDS011;23991;52.430;10.586;2022-08-18T04:34:14;20.10;;;16.30;;
38182;SDS011;23991;52.430;10.586;2022-08-18T04:36:40;19.13;;;16.08;;
38182;SDS011;23991;52.430;10.586;2022-08-18T04:39:07;21.83;;;17.63;;
38182;SDS011;23991;52.430;10.586;2022-08-18T04:41:34;21.17;;;16.52;;
38182;SDS011;23991;52.430;10.586;2022-08-18T04:44:01;26.95;;;17.58;;
38182;SDS011;23991;52.430;10.586;2022-08-18T04:46:29;20.33;;;16.17;;
38182;SDS011;23991;52.430;10.586;2022-08-18T04:49:00;18.25;;;15.48;;
38182;SDS011;23991;52.430;10.586;2022-08-18T04:51:26;22.42;;;17.55;;
38182;SDS011;23991;52.430;10.586;2022-08-18T04:53:54;19.48;;;16.40;;
38182;SDS011;23991;52.430;10.586;2022-08-18T04:56:25;20.88;;;17.58;;
38182;SDS011;23991;52.430;10.586;2022-08-18T04:58:53;20.27;;;17.38;;
38182;SDS011;23991;52.430;10.586;2022-08-18T05:01:33;23.13;;;17.10;;
38182;SDS011;23991;52.430;10.586;2022-08-18T05:04:01;22.20;;;17.17;;
38182;SDS011;23991;52.430;10.586;2022-08-18T05:06:28;19.13;;;16.70;;
38182;SDS011;23991;52.430;10.586;2022-08-18T05:08:56;19.75;;;16.17;;
38182;SDS011;23991;52.430;10.586;2022-08-18T05:11:24;23.33;;;18.00;;
38182;SDS011;23991;52.430;10.586;2022-08-18T05:13:54;22.48;;;16.48;;
38182;SDS011;23991;52.430;10.586;2022-08-18T05:16:21;20.75;;;16.92;;
38182;SDS011;23991;52.430;10.586;2022-08-18T05:18:49;20.55;;;18.23;;
38182;SDS011;23991;52.430;10.586;2022-08-18T05:21:15;20.13;;;17.48;;
38182;SDS011;23991;52.430;10.586;2022-08-18T05:23:41;20.15;;;17.55;;
38182;SDS011;23991;52.430;10.586;2022-08-18T05:26:09;22.38;;;18.10;;
38182;SDS011;23991;52.430;10.586;2022-08-18T05:28:37;21.02;;;18.02;;
38182;SDS011;23991;52.430;10.586;2022-08-18T05:31:07;24.35;;;17.60;;
38182;SDS011;23991;52.430;10.586;2022-08-18T05:36:22;20.38;;;16.92;;
38182;SDS011;23991;52.430;10.586;2022-08-18T05:39:11;19.25;;;16.70;;
38182;SDS011;23991;52.430;10.586;2022-08-18T05:42:00;25.88;;;17.27;;
38182;SDS011;23991;52.430;10.586;2022-08-18T05:44:27;26.33;;;17.13;;
38182;SDS011;23991;52.430;10.586;2022-08-18T05:46:55;24.67;;;17.65;;
38182;SDS011;23991;52.430;10.586;2022-08-18T05:49:26;21.67;;;17.40;;
38182;SDS011;23991;52.430;10.586;2022-08-18T05:51:53;23.15;;;18.25;;
38182;SDS011;23991;52.430;10.586;2022-08-18T05:54:26;23.65;;;18.13;;
38182;SDS011;23991;52.430;10.586;2022-08-18T05:57:16;19.80;;;16.65;;
38182;SDS011;23991;52.430;10.586;2022-08-18T05:59:45;23.40;;;18.77;;
38182;SDS011;23991;52.430;10.586;2022-08-18T06:04:59;21.65;;;16.83;;
38182;SDS011;23991;52.430;10.586;2022-08-18T06:10:01;21.40;;;16.75;;
38182;SDS011;23991;52.430;10.586;2022-08-18T06:12:30;20.20;;;17.43;;
38182;SDS011;23991;52.430;10.586;2022-08-18T06:15:01;19.42;;;17.13;;
38182;SDS011;23991;52.430;10.586;2022-08-18T06:23:40;24.20;;;17.63;;
38182;SDS011;23991;52.430;10.586;2022-08-18T06:26:17;20.85;;;16.85;;
38182;SDS011;23991;52.430;10.586;2022-08-18T06:32:04;19.88;;;17.45;;
38182;SDS011;23991;52.430;10.586;2022-08-18T06:36:51;25.73;;;19.55;;
38182;SDS011;23991;52.430;10.586;2022-08-18T06:39:42;21.65;;;17.98;;
38182;SDS011;23991;52.430;10.586;2022-08-18T06:42:11;22.33;;;17.88;;
38182;SDS011;23991;52.430;10.586;2022-08-18T06:44:44;21.65;;;16.42;;
38182;SDS011;23991;52.430;10.586;2022-08-18T06:53:01;21.60;;;17.45;;
38182;SDS011;23991;52.430;10.586;2022-08-18T06:55:31;22.80;;;18.00;;
38182;SDS011;23991;52.430;10.586;2022-08-18T06:58:05;24.38;;;19.20;;
38182;SDS011;23991;52.430;10.586;2022-08-18T07:03:17;22.65;;;17.73;;
38182;SDS011;23991;52.430;10.586;2022-08-18T07:08:33;23.98;;;18.58;;
38182;SDS011;23991;52.430;10.586;2022-08-18T07:11:24;21.33;;;18.55;;
38182;SDS011;23991;52.430;10.586;2022-08-18T07:13:54;23.95;;;17.77;;
38182;SDS011;23991;52.430;10.586;2022-08-18T07:16:23;21.93;;;19.20;;
38182;SDS011;23991;52.430;10.586;2022-08-18T07:19:05;21.75;;;19.25;;
38182;SDS011;23991;52.430;10.586;2022-08-18T07:21:41;22.90;;;19.45;;
38182;SDS011;23991;52.430;10.586;2022-08-18T07:27:12;23.80;;;20.23;;
38182;SDS011;23991;52.430;10.586;2022-08-18T07:29:58;25.02;;;19.15;;
38182;SDS011;23991;52.430;10.586;2022-08-18T07:32:39;22.15;;;19.40;;
38182;SDS011;23991;52.430;10.586;2022-08-18T07:35:10;27.27;;;21.20;;
38182;SDS011;23991;52.430;10.586;2022-08-18T07:42:51;22.98;;;19.52;;
38182;SDS011;23991;52.430;10.586;2022-08-18T07:45:34;21.70;;;19.27;;
38182;SDS011;23991;52.430;10.586;2022-08-18T07:50:45;23.15;;;19.33;;
38182;SDS011;23991;52.430;10.586;2022-08-18T07:53:25;20.88;;;18.58;;
38182;SDS011;23991;52.430;10.586;2022-08-18T07:56:01;24.45;;;20.02;;
38182;SDS011;23991;52.430;10.586;2022-08-18T08:06:59;21.25;;;18.30;;
38182;SDS011;23991;52.430;10.586;2022-08-18T08:09:34;20.42;;;17.73;;
38182;SDS011;23991;52.430;10.586;2022-08-18T08:12:14;21.55;;;18.88;;
38182;SDS011;23991;52.430;10.586;2022-08-18T08:14:55;22.45;;;19.33;;
38182;SDS011;23991;52.430;10.586;2022-08-18T08:17:37;19.98;;;16.63;;
38182;SDS011;23991;52.430;10.586;2022-08-18T08:20:20;20.42;;;16.80;;
38182;SDS011;23991;52.430;10.586;2022-08-18T08:25:50;18.58;;;15.82;;
38182;SDS011;23991;52.430;10.586;2022-08-18T08:28:36;20.42;;;16.27;;
38182;SDS011;23991;52.430;10.586;2022-08-18T08:31:16;19.27;;;17.10;;
38182;SDS011;23991;52.430;10.586;2022-08-18T08:34:17;18.83;;;15.25;;
38182;SDS011;23991;52.430;10.586;2022-08-18T08:37:05;19.33;;;17.08;;
38182;SDS011;23991;52.430;10.586;2022-08-18T08:39:44;20.25;;;17.50;;
38182;SDS011;23991;52.430;10.586;2022-08-18T08:42:26;17.80;;;15.93;;
38182;SDS011;23991;52.430;10.586;2022-08-18T08:44:59;19.15;;;16.38;;
38182;SDS011;23991;52.430;10.586;2022-08-18T08:47:41;19.42;;;16.70;;
38182;SDS011;23991;52.430;10.586;2022-08-18T08:50:26;19.05;;;16.45;;
38182;SDS011;23991;52.430;10.586;2022-08-18T08:53:03;20.98;;;17.88;;
38182;SDS011;23991;52.430;10.586;2022-08-18T08:55:33;18.75;;;15.98;;
38182;SDS011;23991;52.430;10.586;2022-08-18T08:58:11;23.95;;;17.58;;
38182;SDS011;23991;52.430;10.586;2022-08-18T09:00:47;21.00;;;17.70;;
38182;SDS011;23991;52.430;10.586;2022-08-18T09:06:10;18.58;;;16.42;;
38182;SDS011;23991;52.430;10.586;2022-08-18T09:12:01;19.50;;;17.40;;
38182;SDS011;23991;52.430;10.586;2022-08-18T09:17:24;20.55;;;17.65;;
38182;SDS011;23991;52.430;10.586;2022-08-18T09:20:27;20.92;;;17.70;;
38182;SDS011;23991;52.430;10.586;2022-08-18T09:28:07;16.88;;;14.90;;
38182;SDS011;23991;52.430;10.586;2022-08-18T09:30:41;20.20;;;15.75;;
38182;SDS011;23991;52.430;10.586;2022-08-18T09:33:17;16.58;;;13.85;;
38182;SDS011;23991;52.430;10.586;2022-08-18T09:36:00;16.50;;;14.65;;
38182;SDS011;23991;52.430;10.586;2022-08-18T09:38:30;15.00;;;12.65;;
38182;SDS011;23991;52.430;10.586;2022-08-18T09:41:22;18.63;;;15.55;;
38182;SDS011;23991;52.430;10.586;2022-08-18T09:44:09;14.80;;;12.90;;
38182;SDS011;23991;52.430;10.586;2022-08-18T09:54:26;18.58;;;14.18;;
38182;SDS011;23991;52.430;10.586;2022-08-18T10:02:10;12.75;;;10.90;;
38182;SDS011;23991;52.430;10.586;2022-08-18T10:04:42;15.17;;;11.37;;
38182;SDS011;23991;52.430;10.586;2022-08-18T10:07:20;14.18;;;11.95;;
38182;SDS011;23991;52.430;10.586;2022-08-18T10:13:00;10.30;;;9.30;;
38182;SDS011;23991;52.430;10.586;2022-08-18T10:20:47;13.23;;;11.20;;
38182;SDS011;23991;52.430;10.586;2022-08-18T10:23:40;13.60;;;11.82;;
38182;SDS011;23991;52.430;10.586;2022-08-18T10:28:59;13.82;;;11.10;;
38182;SDS011;23991;52.430;10.586;2022-08-18T10:31:29;12.45;;;10.65;;
38182;SDS011;23991;52.430;10.586;2022-08-18T10:34:35;14.57;;;11.52;;
38182;SDS011;23991;52.430;10.586;2022-08-18T10:37:10;13.70;;;12.20;;
38182;SDS011;23991;52.430;10.586;2022-08-18T10:39:44;13.77;;;11.47;;
38182;SDS011;23991;52.430;10.586;2022-08-18T10:42:22;11.32;;;10.13;;
38182;SDS011;23991;52.430;10.586;2022-08-18T10:44:49;14.48;;;12.27;;
38182;SDS011;23991;52.430;10.586;2022-08-18T10:49:51;13.18;;;11.52;;
38182;SDS011;23991;52.430;10.586;2022-08-18T10:54:59;13.68;;;11.30;;
38182;SDS011;23991;52.430;10.586;2022-08-18T11:00:18;12.63;;;10.85;;
38182;SDS011;23991;52.430;10.586;2022-08-18T11:05:29;13.65;;;12.07;;
38182;SDS011;23991;52.430;10.586;2022-08-18T11:07:59;12.85;;;10.90;;
38182;SDS011;23991;52.430;10.586;2022-08-18T11:10:45;15.45;;;11.63;;
38182;SDS011;23991;52.430;10.586;2022-08-18T11:13:17;11.23;;;9.65;;
38182;SDS011;23991;52.430;10.586;2022-08-18T11:24:03;12.65;;;10.05;;
38182;SDS011;23991;52.430;10.586;2022-08-18T11:26:29;13.48;;;9.88;;
38182;SDS011;23991;52.430;10.586;2022-08-18T11:28:56;11.93;;;9.98;;
38182;SDS011;23991;52.430;10.586;2022-08-18T11:31:22;11.75;;;9.75;;
38182;SDS011;23991;52.430;10.586;2022-08-18T11:33:48;11.82;;;9.27;;
38182;SDS011;23991;52.430;10.586;2022-08-18T11:36:14;10.98;;;8.65;;
38182;SDS011;23991;52.430;10.586;2022-08-18T11:38:51;14.32;;;9.38;;
38182;SDS011;23991;52.430;10.586;2022-08-18T11:41:24;12.80;;;8.48;;
38182;SDS011;23991;52.430;10.586;2022-08-18T11:43:58;10.80;;;9.15;;
38182;SDS011;23991;52.430;10.586;2022-08-18T11:46:28;11.48;;;9.57;;
38182;SDS011;23991;52.430;10.586;2022-08-18T11:48:56;9.27;;;8.32;;
38182;SDS011;23991;52.430;10.586;2022-08-18T11:51:24;9.18;;;8.07;;
38182;SDS011;23991;52.430;10.586;2022-08-18T11:56:28;9.52;;;8.55;;
38182;SDS011;23991;52.430;10.586;2022-08-18T11:59:03;9.05;;;7.72;;
38182;SDS011;23991;52.430;10.586;2022-08-18T12:01:59;12.07;;;7.65;;
38182;SDS011;23991;52.430;10.586;2022-08-18T12:04:36;9.95;;;7.47;;
38182;SDS011;23991;52.430;10.586;2022-08-18T12:07:12;9.18;;;8.27;;
38182;SDS011;23991;52.430;10.586;2022-08-18T12:09:42;8.35;;;7.55;;
38182;SDS011;23991;52.430;10.586;2022-08-18T12:17:20;9.25;;;7.07;;
38182;SDS011;23991;52.430;10.586;2022-08-18T12:19:46;9.38;;;6.90;;
38182;SDS011;23991;52.430;10.586;2022-08-18T12:22:16;7.15;;;6.43;;
38182;SDS011;23991;52.430;10.586;2022-08-18T12:24:47;8.57;;;6.30;;
38182;SDS011;23991;52.430;10.586;2022-08-18T12:27:13;7.38;;;6.65;;
38182;SDS011;23991;52.430;10.586;2022-08-18T12:29:41;7.72;;;5.90;;
38182;SDS011;23991;52.430;10.586;2022-08-18T12:32:07;6.25;;;5.65;;
38182;SDS011;23991;52.430;10.586;2022-08-18T12:34:33;7.50;;;6.70;;
38182;SDS011;23991;52.430;10.586;2022-08-18T12:36:59;8.40;;;7.40;;
38182;SDS011;23991;52.430;10.586;2022-08-18T12:39:30;6.88;;;5.97;;
38182;SDS011;23991;52.430;10.586;2022-08-18T12:41:56;6.20;;;5.20;;
38182;SDS011;23991;52.430;10.586;2022-08-18T12:44:22;6.53;;;5.93;;
38182;SDS011;23991;52.430;10.586;2022-08-18T12:46:48;8.40;;;5.47;;
38182;SDS011;23991;52.430;10.586;2022-08-18T12:49:15;6.93;;;6.10;;
38182;SDS011;23991;52.430;10.586;2022-08-18T12:51:44;9.68;;;6.18;;
38182;SDS011;23991;52.430;10.586;2022-08-18T12:54:10;6.13;;;5.53;;
38182;SDS011;23991;52.430;10.586;2022-08-18T12:56:36;6.25;;;5.65;;
38182;SDS011;23991;52.430;10.586;2022-08-18T12:59:04;6.50;;;5.68;;
38182;SDS011;23991;52.430;10.586;2022-08-18T13:01:32;6.47;;;5.85;;
38182;SDS011;23991;52.430;10.586;2022-08-18T13:03:58;6.75;;;6.05;;
38182;SDS011;23991;52.430;10.586;2022-08-18T13:06:25;7.50;;;6.30;;
38182;SDS011;23991;52.430;10.586;2022-08-18T13:08:51;7.00;;;6.30;;
38182;SDS011;23991;52.430;10.586;2022-08-18T13:11:19;6.75;;;5.82;;
38182;SDS011;23991;52.430;10.586;2022-08-18T13:13:46;6.95;;;5.93;;
38182;SDS011;23991;52.430;10.586;2022-08-18T13:16:12;7.80;;;6.28;;
38182;SDS011;23991;52.430;10.586;2022-08-18T13:18:38;7.00;;;5.70;;
38182;SDS011;23991;52.430;10.586;2022-08-18T13:21:08;6.93;;;5.80;;
38182;SDS011;23991;52.430;10.586;2022-08-18T13:23:36;7.60;;;5.50;;
38182;SDS011;23991;52.430;10.586;2022-08-18T13:26:03;7.53;;;5.45;;
38182;SDS011;23991;52.430;10.586;2022-08-18T13:28:31;6.10;;;5.40;;
38182;SDS011;23991;52.430;10.586;2022-08-18T13:30:57;6.82;;;6.22;;
38182;SDS011;23991;52.430;10.586;2022-08-18T13:33:23;6.68;;;5.93;;
38182;SDS011;23991;52.430;10.586;2022-08-18T13:35:49;6.78;;;5.75;;
38182;SDS011;23991;52.430;10.586;2022-08-18T13:38:16;6.78;;;6.07;;
38182;SDS011;23991;52.430;10.586;2022-08-18T13:40:44;6.57;;;5.95;;
38182;SDS011;23991;52.430;10.586;2022-08-18T13:43:12;6.67;;;5.97;;
38182;SDS011;23991;52.430;10.586;2022-08-18T13:45:38;7.00;;;5.88;;
38182;SDS011;23991;52.430;10.586;2022-08-18T13:48:05;7.15;;;6.22;;
38182;SDS011;23991;52.430;10.586;2022-08-18T13:50:30;8.60;;;5.97;;
38182;SDS011;23991;52.430;10.586;2022-08-18T13:52:56;7.03;;;5.43;;
38182;SDS011;23991;52.430;10.586;2022-08-18T13:55:25;7.45;;;6.00;;
38182;SDS011;23991;52.430;10.586;2022-08-18T13:57:52;7.00;;;5.60;;
38182;SDS011;23991;52.430;10.586;2022-08-18T14:00:19;6.97;;;6.05;;
38182;SDS011;23991;52.430;10.586;2022-08-18T14:02:47;8.95;;;5.95;;
38182;SDS011;23991;52.430;10.586;2022-08-18T14:05:16;6.80;;;5.97;;
38182;SDS011;23991;52.430;10.586;2022-08-18T14:07:42;8.13;;;5.47;;
38182;SDS011;23991;52.430;10.586;2022-08-18T14:10:08;8.77;;;5.88;;
38182;SDS011;23991;52.430;10.586;2022-08-18T14:12:35;6.40;;;5.72;;
38182;SDS011;23991;52.430;10.586;2022-08-18T14:15:03;6.47;;;5.80;;
38182;SDS011;23991;52.430;10.586;2022-08-18T14:17:31;6.05;;;5.28;;
38182;SDS011;23991;52.430;10.586;2022-08-18T14:19:57;6.45;;;5.68;;
38182;SDS011;23991;52.430;10.586;2022-08-18T14:22:41;7.00;;;5.85;;
38182;SDS011;23991;52.430;10.586;2022-08-18T14:25:26;7.88;;;5.97;;
38182;SDS011;23991;52.430;10.586;2022-08-18T14:28:11;7.75;;;5.88;;
38182;SDS011;23991;52.430;10.586;2022-08-18T14:30:37;7.20;;;6.50;;
38182;SDS011;23991;52.430;10.586;2022-08-18T14:33:06;8.27;;;5.70;;
38182;SDS011;23991;52.430;10.586;2022-08-18T14:35:34;7.38;;;6.05;;
38182;SDS011;23991;52.430;10.586;2022-08-18T14:38:02;7.50;;;6.03;;
38182;SDS011;23991;52.430;10.586;2022-08-18T14:40:28;6.53;;;5.93;;
38182;SDS011;23991;52.430;10.586;2022-08-18T14:42:56;8.85;;;6.57;;
38182;SDS011;23991;52.430;10.586;2022-08-18T14:45:23;6.75;;;6.15;;
38182;SDS011;23991;52.430;10.586;2022-08-18T14:47:49;6.75;;;5.70;;
38182;SDS011;23991;52.430;10.586;2022-08-18T14:50:17;6.55;;;5.25;;
38182;SDS011;23991;52.430;10.586;2022-08-18T14:52:44;8.57;;;5.70;;
38182;SDS011;23991;52.430;10.586;2022-08-18T14:55:09;6.47;;;5.82;;
38182;SDS011;23991;52.430;10.586;2022-08-18T14:57:38;7.45;;;5.53;;
38182;SDS011;23991;52.430;10.586;2022-08-18T15:00:10;8.60;;;5.63;;
38182;SDS011;23991;52.430;10.586;2022-08-18T15:02:42;6.50;;;5.80;;
38182;SDS011;23991;52.430;10.586;2022-08-18T15:05:22;6.70;;;5.82;;
38182;SDS011;23991;52.430;10.586;2022-08-18T15:07:48;7.72;;;5.97;;
38182;SDS011;23991;52.430;10.586;2022-08-18T15:10:14;7.43;;;6.40;;
38182;SDS011;23991;52.430;10.586;2022-08-18T15:12:40;9.75;;;6.55;;
38182;SDS011;23991;52.430;10.586;2022-08-18T15:15:08;8.57;;;5.68;;
38182;SDS011;23991;52.430;10.586;2022-08-18T15:17:36;8.48;;;5.82;;
38182;SDS011;23991;52.430;10.586;2022-08-18T15:20:06;6.93;;;6.20;;
38182;SDS011;23991;52.430;10.586;2022-08-18T15:22:37;7.28;;;5.88;;
38182;SDS011;23991;52.430;10.586;2022-08-18T15:25:23;6.93;;;5.60;;
38182;SDS011;23991;52.430;10.586;2022-08-18T15:28:00;7.90;;;5.82;;
38182;SDS011;23991;52.430;10.586;2022-08-18T15:30:26;6.38;;;5.75;;
38182;SDS011;23991;52.430;10.586;2022-08-18T15:32:52;7.07;;;6.38;;
38182;SDS011;23991;52.430;10.586;2022-08-18T15:35:18;6.93;;;5.85;;
38182;SDS011;23991;52.430;10.586;2022-08-18T15:37:44;6.35;;;5.40;;
38182;SDS011;23991;52.430;10.586;2022-08-18T15:40:15;6.30;;;5.70;;
38182;SDS011;23991;52.430;10.586;2022-08-18T15:42:45;7.93;;;5.82;;
38182;SDS011;23991;52.430;10.586;2022-08-18T15:45:24;6.80;;;6.10;;
38182;SDS011;23991;52.430;10.586;2022-08-18T15:47:52;9.65;;;5.72;;
38182;SDS011;23991;52.430;10.586;2022-08-18T15:50:19;7.97;;;5.90;;
38182;SDS011;23991;52.430;10.586;2022-08-18T15:52:49;10.60;;;5.95;;
38182;SDS011;23991;52.430;10.586;2022-08-18T15:55:17;6.45;;;5.85;;
38182;SDS011;23991;52.430;10.586;2022-08-18T15:57:44;7.57;;;5.88;;
38182;SDS011;23991;52.430;10.586;2022-08-18T16:00:11;7.88;;;5.85;;
38182;SDS011;23991;52.430;10.586;2022-08-18T16:02:40;8.38;;;5.30;;
38182;SDS011;23991;52.430;10.586;2022-08-18T16:05:06;6.57;;;5.85;;
38182;SDS011;23991;52.430;10.586;2022-08-18T16:07:32;7.18;;;5.78;;
38182;SDS011;23991;52.430;10.586;2022-08-18T16:10:00;7.50;;;5.88;;
38182;SDS011;23991;52.430;10.586;2022-08-18T16:12:26;7.10;;;6.13;;
38182;SDS011;23991;52.430;10.586;2022-08-18T16:14:52;11.45;;;5.55;;
38182;SDS011;23991;52.430;10.586;2022-08-18T16:17:17;6.85;;;5.85;;
38182;SDS011;23991;52.430;10.586;2022-08-18T16:19:45;5.97;;;5.18;;
38182;SDS011;23991;52.430;10.586;2022-08-18T16:22:11;7.53;;;5.43;;
38182;SDS011;23991;52.430;10.586;2022-08-18T16:24:37;6.43;;;5.57;;
38182;SDS011;23991;52.430;10.586;2022-08-18T16:27:03;8.48;;;5.18;;
38182;SDS011;23991;52.430;10.586;2022-08-18T16:29:30;7.03;;;5.13;;
38182;SDS011;23991;52.430;10.586;2022-08-18T16:31:56;9.68;;;5.65;;
38182;SDS011;23991;52.430;10.586;2022-08-18T16:34:22;5.82;;;5.15;;
38182;SDS011;23991;52.430;10.586;2022-08-18T16:36:48;6.82;;;5.90;;
38182;SDS011;23991;52.430;10.586;2022-08-18T16:39:13;7.88;;;5.53;;
38182;SDS011;23991;52.430;10.586;2022-08-18T16:41:39;7.22;;;5.95;;
38182;SDS011;23991;52.430;10.586;2022-08-18T16:44:04;7.15;;;5.53;;